createdAt,value
2017-07-06T00:01:27.441Z,14.20
2017-07-06T00:03:56.635Z,14.10
2017-07-06T00:06:24.748Z,14.10
2017-07-06T00:08:54.295Z,14.10
2017-07-06T00:11:23.626Z,14.10
2017-07-06T00:13:51.766Z,14.10
2017-07-06T00:16:20.058Z,14.20
2017-07-06T00:18:48.187Z,14.30
2017-07-06T00:21:16.367Z,14.20
2017-07-06T00:23:44.487Z,14.30
2017-07-06T00:26:12.638Z,14.30
2017-07-06T00:28:40.783Z,14.30
2017-07-06T00:31:09.871Z,14.30
2017-07-06T00:33:38.054Z,14.20
2017-07-06T00:36:06.725Z,14.30
2017-07-06T00:38:34.875Z,14.30
2017-07-06T00:41:03.002Z,14.30
2017-07-06T00:43:31.736Z,14.30
2017-07-06T00:45:59.886Z,14.30
2017-07-06T00:48:28.092Z,14.30
2017-07-06T00:50:56.728Z,14.30
2017-07-06T00:53:24.844Z,14.30
2017-07-06T00:55:53.001Z,14.30
2017-07-06T00:58:21.142Z,14.30
2017-07-06T01:00:49.268Z,14.30
2017-07-06T01:03:17.928Z,14.30
2017-07-06T01:05:46.053Z,14.30
2017-07-06T01:08:15.766Z,14.30
2017-07-06T01:10:44.461Z,14.30
2017-07-06T01:13:12.590Z,14.30
2017-07-06T01:15:40.798Z,14.30
2017-07-06T01:18:08.934Z,14.30
2017-07-06T01:20:37.974Z,14.20
2017-07-06T01:23:06.109Z,14.20
2017-07-06T01:25:34.242Z,14.10
2017-07-06T01:28:02.380Z,14.10
2017-07-06T01:30:31.330Z,14.10
2017-07-06T01:32:59.434Z,14.10
2017-07-06T01:35:28.351Z,14.00
2017-07-06T01:37:57.381Z,13.90
2017-07-06T01:40:26.396Z,13.90
2017-07-06T01:42:54.563Z,13.80
2017-07-06T01:45:22.692Z,13.80
2017-07-06T01:47:50.815Z,13.80
2017-07-06T01:50:19.857Z,13.80
2017-07-06T01:52:47.993Z,13.80
2017-07-06T01:55:16.158Z,13.80
2017-07-06T01:57:45.039Z,13.80
2017-07-06T02:00:13.174Z,13.80
2017-07-06T02:02:42.065Z,13.80
2017-07-06T02:05:10.499Z,13.80
2017-07-06T02:07:38.671Z,13.80
2017-07-06T02:10:06.811Z,13.80
2017-07-06T02:12:34.958Z,13.80
2017-07-06T02:15:03.128Z,13.80
2017-07-06T02:17:31.298Z,13.80
2017-07-06T02:19:59.448Z,13.80
2017-07-06T02:22:28.334Z,13.70
2017-07-06T02:24:56.863Z,13.60
2017-07-06T02:27:24.992Z,13.70
2017-07-06T02:29:53.121Z,13.70
2017-07-06T02:32:21.254Z,13.60
2017-07-06T02:34:49.547Z,13.70
2017-07-06T02:37:17.697Z,13.60
2017-07-06T02:39:46.925Z,13.60
2017-07-06T02:42:15.036Z,13.60
2017-07-06T02:44:43.167Z,13.60
2017-07-06T02:47:11.294Z,13.60
2017-07-06T02:49:39.469Z,13.70
2017-07-06T02:52:07.609Z,13.60
2017-07-06T02:54:35.730Z,13.60
2017-07-06T02:57:04.315Z,13.60
2017-07-06T02:59:32.720Z,13.60
2017-07-06T03:02:00.878Z,13.70
2017-07-06T03:04:29.018Z,13.70
2017-07-06T03:06:58.794Z,13.80
2017-07-06T03:09:26.956Z,13.80
2017-07-06T03:11:55.896Z,13.90
2017-07-06T03:14:24.155Z,13.90
2017-07-06T03:16:52.304Z,14.00
2017-07-06T03:19:21.556Z,14.00
2017-07-06T03:21:49.711Z,13.90
2017-07-06T03:24:17.833Z,13.90
2017-07-06T03:26:45.998Z,14.00
2017-07-06T03:29:14.146Z,14.00
2017-07-06T03:31:42.251Z,14.00
2017-07-06T03:34:10.390Z,13.90
2017-07-06T03:36:38.543Z,13.90
2017-07-06T03:39:07.432Z,13.90
2017-07-06T03:41:36.146Z,13.90
2017-07-06T03:44:05.193Z,13.90
2017-07-06T03:46:33.580Z,14.00
2017-07-06T03:49:02.573Z,14.00
2017-07-06T03:51:30.745Z,14.00
2017-07-06T03:54:00.003Z,14.00
2017-07-06T03:56:28.124Z,14.00
2017-07-06T03:58:57.275Z,14.00
2017-07-06T04:01:25.962Z,14.00
2017-07-06T04:03:54.120Z,14.00
2017-07-06T04:06:22.245Z,14.10
2017-07-06T04:08:51.293Z,14.20
2017-07-06T04:11:19.442Z,14.30
2017-07-06T04:13:47.550Z,14.30
2017-07-06T04:16:15.704Z,14.40
2017-07-06T04:18:43.838Z,14.40
2017-07-06T04:21:11.946Z,14.50
2017-07-06T04:23:40.075Z,14.50
2017-07-06T04:26:09.115Z,14.60
2017-07-06T04:28:37.268Z,14.60
2017-07-06T04:31:06.340Z,14.70
2017-07-06T04:33:35.388Z,14.90
2017-07-06T04:36:03.577Z,14.80
2017-07-06T04:38:31.710Z,15.00
2017-07-06T04:41:00.239Z,15.10
2017-07-06T04:43:28.382Z,15.20
2017-07-06T04:45:56.581Z,15.30
2017-07-06T04:48:24.691Z,15.40
2017-07-06T04:50:52.809Z,15.50
2017-07-06T04:53:20.969Z,15.60
2017-07-06T04:55:49.226Z,15.70
2017-07-06T04:58:17.473Z,15.80
2017-07-06T05:00:45.604Z,15.90
2017-07-06T05:03:15.338Z,16.20
2017-07-06T05:05:43.559Z,16.20
2017-07-06T05:08:11.673Z,16.40
2017-07-06T05:10:40.088Z,16.40
2017-07-06T05:13:08.254Z,16.50
2017-07-06T05:15:36.359Z,16.40
2017-07-06T05:18:05.240Z,16.50
2017-07-06T05:20:33.361Z,16.60
2017-07-06T05:23:01.623Z,16.60
2017-07-06T05:25:29.914Z,16.60
2017-07-06T05:27:59.553Z,16.80
2017-07-06T05:30:27.693Z,16.80
2017-07-06T05:32:56.263Z,16.80
2017-07-06T05:35:24.415Z,17.00
2017-07-06T05:37:52.523Z,17.00
2017-07-06T05:40:20.666Z,17.00
2017-07-06T05:42:48.804Z,17.00
2017-07-06T05:45:17.047Z,17.10
2017-07-06T05:47:45.206Z,17.10
2017-07-06T05:50:13.322Z,17.10
2017-07-06T05:52:41.432Z,17.10
2017-07-06T05:55:09.572Z,17.10
2017-07-06T05:57:37.699Z,17.20
2017-07-06T06:00:05.880Z,17.30
2017-07-06T06:02:33.996Z,17.30
2017-07-06T06:05:02.140Z,17.30
2017-07-06T06:07:31.120Z,17.40
2017-07-06T06:09:59.309Z,17.40
2017-07-06T06:12:27.474Z,17.50
2017-07-06T06:14:55.592Z,17.50
2017-07-06T06:17:23.694Z,17.50
2017-07-06T06:19:51.860Z,17.50
2017-07-06T06:22:20.129Z,17.50
2017-07-06T06:24:48.871Z,17.60
2017-07-06T06:27:16.984Z,17.60
2017-07-06T06:29:45.310Z,17.60
2017-07-06T06:32:14.163Z,17.70
2017-07-06T06:34:42.323Z,17.90
2017-07-06T06:37:10.450Z,18.00
2017-07-06T06:39:38.568Z,18.00
2017-07-06T06:42:06.724Z,18.00
2017-07-06T06:44:34.855Z,18.10
2017-07-06T06:47:02.989Z,18.20
2017-07-06T06:49:31.271Z,18.30
2017-07-06T06:51:59.403Z,18.20
2017-07-06T06:54:27.589Z,18.30
2017-07-06T06:56:55.738Z,18.40
2017-07-06T06:59:24.802Z,18.70
2017-07-06T07:01:53.916Z,18.60
2017-07-06T07:04:22.895Z,18.90
2017-07-06T07:06:51.862Z,19.10
2017-07-06T07:09:20.491Z,19.10
2017-07-06T07:11:48.980Z,19.30
2017-07-06T07:14:17.189Z,19.60
2017-07-06T07:16:45.321Z,19.60
2017-07-06T07:19:13.487Z,19.90
2017-07-06T07:21:41.601Z,20.10
2017-07-06T07:24:09.785Z,20.20
2017-07-06T07:26:37.915Z,20.20
2017-07-06T07:29:06.101Z,20.30
2017-07-06T07:31:34.248Z,20.50
2017-07-06T07:34:03.141Z,20.80
2017-07-06T07:36:31.361Z,20.70
2017-07-06T07:38:59.504Z,21.00
2017-07-06T07:41:28.174Z,21.30
2017-07-06T07:43:56.337Z,21.50
2017-07-06T07:46:24.451Z,21.80
2017-07-06T07:48:52.724Z,21.90
2017-07-06T07:51:20.932Z,21.80
2017-07-06T07:53:49.105Z,21.90
2017-07-06T07:56:17.462Z,21.80
2017-07-06T07:58:45.693Z,22.00
2017-07-06T08:01:13.848Z,22.40
2017-07-06T08:03:42.379Z,22.70
2017-07-06T08:06:10.521Z,22.80
2017-07-06T08:08:38.684Z,23.00
2017-07-06T08:11:06.812Z,22.90
2017-07-06T08:13:35.555Z,23.20
2017-07-06T08:16:04.234Z,23.30
2017-07-06T08:18:32.342Z,23.50
2017-07-06T08:21:00.493Z,23.30
2017-07-06T08:23:28.619Z,23.00
2017-07-06T08:25:56.754Z,23.20
2017-07-06T08:28:25.661Z,22.80
2017-07-06T08:30:54.316Z,22.70
2017-07-06T08:33:22.477Z,22.50
2017-07-06T08:35:50.596Z,22.00
2017-07-06T08:38:19.065Z,21.90
2017-07-06T08:40:47.960Z,21.70
2017-07-06T08:43:16.214Z,21.60
2017-07-06T08:45:44.370Z,21.80
2017-07-06T08:48:12.484Z,21.70
2017-07-06T08:50:40.644Z,21.60
2017-07-06T08:53:09.490Z,21.40
2017-07-06T08:55:38.227Z,21.10
2017-07-06T08:58:07.172Z,20.90
2017-07-06T09:00:36.325Z,20.90
2017-07-06T09:03:04.551Z,20.90
2017-07-06T09:05:32.694Z,20.90
2017-07-06T09:08:00.860Z,20.80
2017-07-06T09:10:29.285Z,21.00
2017-07-06T09:12:57.633Z,21.20
2017-07-06T09:15:25.797Z,21.40
2017-07-06T09:17:53.990Z,21.90
2017-07-06T09:20:22.121Z,22.70
2017-07-06T09:22:50.217Z,23.10
2017-07-06T09:25:18.363Z,23.30
2017-07-06T09:27:46.916Z,23.60
2017-07-06T09:30:15.099Z,23.80
2017-07-06T09:32:43.228Z,23.80
2017-07-06T09:35:11.345Z,23.90
2017-07-06T09:37:39.857Z,23.50
2017-07-06T09:40:08.045Z,23.30
2017-07-06T09:42:36.199Z,23.00
2017-07-06T09:45:04.330Z,22.60
2017-07-06T09:47:32.453Z,22.40
2017-07-06T09:50:00.625Z,22.60
2017-07-06T09:52:28.801Z,23.00
2017-07-06T09:54:56.993Z,23.00
2017-07-06T09:57:25.146Z,22.80
2017-07-06T09:59:53.894Z,22.80
2017-07-06T10:02:22.027Z,23.10
2017-07-06T10:04:50.216Z,23.40
2017-07-06T10:07:18.359Z,23.50
2017-07-06T10:09:47.270Z,23.20
2017-07-06T10:12:15.430Z,23.20
2017-07-06T10:14:45.105Z,23.10
2017-07-06T10:17:15.605Z,23.00
2017-07-06T10:19:43.760Z,22.80
2017-07-06T10:22:11.914Z,22.50
2017-07-06T10:24:40.054Z,22.20
2017-07-06T10:27:08.204Z,22.00
2017-07-06T10:29:36.333Z,22.10
2017-07-06T10:32:04.454Z,22.20
2017-07-06T10:34:32.643Z,22.30
2017-07-06T10:37:00.782Z,22.50
2017-07-06T10:39:29.552Z,22.50
2017-07-06T10:41:57.691Z,22.50
2017-07-06T10:44:26.581Z,23.30
2017-07-06T10:46:54.817Z,23.20
2017-07-06T10:49:22.939Z,23.50
2017-07-06T10:51:51.106Z,23.20
2017-07-06T10:54:19.337Z,23.00
2017-07-06T10:56:48.210Z,23.50
2017-07-06T10:59:16.352Z,23.50
2017-07-06T11:01:44.516Z,23.90
2017-07-06T11:04:12.647Z,24.30
2017-07-06T11:06:40.792Z,24.60
2017-07-06T11:09:08.932Z,25.20
2017-07-06T11:11:37.849Z,25.70
2017-07-06T11:14:05.978Z,25.60
2017-07-06T11:16:34.709Z,25.70
2017-07-06T11:19:02.854Z,25.80
2017-07-06T11:21:30.987Z,26.00
2017-07-06T11:23:59.119Z,25.80
2017-07-06T11:26:27.232Z,26.00
2017-07-06T11:28:55.372Z,25.60
2017-07-06T11:31:23.531Z,26.00
2017-07-06T11:33:51.737Z,26.00
2017-07-06T11:36:19.884Z,26.00
2017-07-06T11:38:48.011Z,25.50
2017-07-06T11:41:16.885Z,24.90
2017-07-06T11:43:45.082Z,24.90
2017-07-06T11:46:13.228Z,24.90
2017-07-06T11:48:41.374Z,25.30
2017-07-06T11:51:09.502Z,25.40
2017-07-06T11:53:37.631Z,25.50
2017-07-06T11:56:05.773Z,25.60
2017-07-06T11:58:33.926Z,25.40
2017-07-06T12:01:02.968Z,25.70
2017-07-06T12:03:31.075Z,25.80
2017-07-06T12:05:59.249Z,25.60
2017-07-06T12:08:28.152Z,25.10
2017-07-06T12:10:56.311Z,25.00
2017-07-06T12:13:24.465Z,25.20
2017-07-06T12:15:52.615Z,25.00
2017-07-06T12:18:20.796Z,25.10
2017-07-06T12:20:48.974Z,25.30
2017-07-06T12:23:17.091Z,25.40
2017-07-06T12:25:45.641Z,25.20
2017-07-06T12:28:13.796Z,25.30
2017-07-06T12:30:41.922Z,25.20
2017-07-06T12:33:10.442Z,25.40
2017-07-06T12:35:38.806Z,25.20
2017-07-06T12:38:06.963Z,24.80
2017-07-06T12:40:35.875Z,24.50
2017-07-06T12:43:04.026Z,24.40
2017-07-06T12:45:32.998Z,24.70
2017-07-06T12:48:01.321Z,24.60
2017-07-06T12:50:29.437Z,24.70
2017-07-06T12:52:57.581Z,25.30
2017-07-06T12:55:25.686Z,25.20
2017-07-06T12:57:53.841Z,25.50
2017-07-06T13:00:21.966Z,25.50
2017-07-06T13:02:50.099Z,25.60
2017-07-06T13:05:18.252Z,25.80
2017-07-06T13:07:46.377Z,25.70
2017-07-06T13:10:14.519Z,25.40
2017-07-06T13:12:42.650Z,25.30
2017-07-06T13:15:10.782Z,25.40
2017-07-06T13:17:38.925Z,25.70
2017-07-06T13:20:07.061Z,25.50
2017-07-06T13:22:35.234Z,25.50
2017-07-06T13:25:04.130Z,25.50
2017-07-06T13:27:32.280Z,25.50
2017-07-06T13:30:00.413Z,25.70
2017-07-06T13:32:28.583Z,25.40
2017-07-06T13:34:56.710Z,25.60
2017-07-06T13:37:24.834Z,25.50
2017-07-06T13:39:52.970Z,25.50
2017-07-06T13:42:21.181Z,25.50
2017-07-06T13:44:49.319Z,25.50
2017-07-06T13:47:17.443Z,25.60
2017-07-06T13:49:45.559Z,25.40
2017-07-06T13:52:13.681Z,25.20
2017-07-06T13:54:42.102Z,25.20
2017-07-06T13:57:10.239Z,25.00
2017-07-06T13:59:38.347Z,24.90
2017-07-06T14:02:06.492Z,25.00
2017-07-06T14:04:34.611Z,24.90
2017-07-06T14:07:02.792Z,25.10
2017-07-06T14:09:30.935Z,25.20
2017-07-06T14:12:00.453Z,25.10
2017-07-06T14:14:28.883Z,25.00
2017-07-06T14:16:58.463Z,24.80
2017-07-06T14:19:27.526Z,24.80
2017-07-06T14:21:55.671Z,24.80
2017-07-06T14:24:23.777Z,24.70
2017-07-06T14:26:52.255Z,24.60
2017-07-06T14:29:20.930Z,24.60
2017-07-06T14:31:49.050Z,24.40
2017-07-06T14:34:17.273Z,24.50
2017-07-06T14:36:45.438Z,24.30
2017-07-06T14:39:13.556Z,24.20
2017-07-06T14:41:41.676Z,24.20
2017-07-06T14:44:09.818Z,24.30
2017-07-06T14:46:38.701Z,24.00
2017-07-06T14:49:06.871Z,23.90
2017-07-06T14:51:35.004Z,24.10
2017-07-06T14:54:03.121Z,24.00
2017-07-06T14:56:31.331Z,24.00
2017-07-06T14:58:59.457Z,24.10
2017-07-06T15:01:27.558Z,24.00
2017-07-06T15:03:56.060Z,23.90
2017-07-06T15:06:24.195Z,24.00
2017-07-06T15:08:52.725Z,24.00
2017-07-06T15:11:20.872Z,23.80
2017-07-06T15:13:49.648Z,24.00
2017-07-06T15:16:17.773Z,23.80
2017-07-06T15:18:45.905Z,23.80
2017-07-06T15:21:14.043Z,24.00
2017-07-06T15:23:42.155Z,24.00
2017-07-06T15:26:10.402Z,24.00
2017-07-06T15:28:38.523Z,24.00
2017-07-06T15:31:06.644Z,23.90
2017-07-06T15:33:34.778Z,23.60
2017-07-06T15:36:02.918Z,23.50
2017-07-06T15:38:31.869Z,23.30
2017-07-06T15:41:01.556Z,23.40
2017-07-06T15:43:29.655Z,23.40
2017-07-06T15:45:57.789Z,23.30
2017-07-06T15:48:26.995Z,23.40
2017-07-06T15:50:55.135Z,23.30
2017-07-06T15:53:23.259Z,23.30
2017-07-06T15:55:51.389Z,23.30
2017-07-06T15:58:19.519Z,23.20
2017-07-06T16:00:47.652Z,23.20
2017-07-06T16:03:15.769Z,23.20
2017-07-06T16:05:43.917Z,23.10
2017-07-06T16:08:12.039Z,23.10
2017-07-06T16:10:40.875Z,23.20
2017-07-06T16:13:09.897Z,23.10
2017-07-06T16:15:38.769Z,22.80
2017-07-06T16:18:06.896Z,22.80
2017-07-06T16:20:35.037Z,22.80
2017-07-06T16:23:03.187Z,22.80
2017-07-06T16:25:31.325Z,22.80
2017-07-06T16:27:59.478Z,22.80
2017-07-06T16:30:27.614Z,22.70
2017-07-06T16:32:55.839Z,22.60
2017-07-06T16:35:23.982Z,22.50
2017-07-06T16:37:52.137Z,22.40
2017-07-06T16:40:20.263Z,22.40
2017-07-06T16:42:48.416Z,22.30
2017-07-06T16:45:16.522Z,22.30
2017-07-06T16:47:45.431Z,22.20
2017-07-06T16:50:13.568Z,22.20
2017-07-06T16:52:41.681Z,22.20
2017-07-06T16:55:09.843Z,22.30
2017-07-06T16:57:37.975Z,22.20
2017-07-06T17:00:06.090Z,22.20
2017-07-06T17:02:34.247Z,22.20
2017-07-06T17:05:02.355Z,22.10
2017-07-06T17:07:30.472Z,22.00
2017-07-06T17:09:58.617Z,21.90
2017-07-06T17:12:26.885Z,21.80
2017-07-06T17:14:55.758Z,21.70
2017-07-06T17:17:24.660Z,21.60
2017-07-06T17:19:52.802Z,21.60
2017-07-06T17:22:22.506Z,21.60
2017-07-06T17:24:50.605Z,21.50
2017-07-06T17:27:18.763Z,21.40
2017-07-06T17:29:47.687Z,21.50
2017-07-06T17:32:15.800Z,21.40
2017-07-06T17:34:44.716Z,21.30
2017-07-06T17:37:12.892Z,21.30
2017-07-06T17:39:41.031Z,21.30
2017-07-06T17:42:09.211Z,21.30
2017-07-06T17:44:37.388Z,21.30
2017-07-06T17:47:05.497Z,21.30
2017-07-06T17:49:33.664Z,21.30
2017-07-06T17:52:01.852Z,21.30
2017-07-06T17:54:29.997Z,21.20
2017-07-06T17:56:58.912Z,21.30
2017-07-06T17:59:27.065Z,21.20
2017-07-06T18:01:55.946Z,21.40
2017-07-06T18:04:24.131Z,21.30
2017-07-06T18:06:52.320Z,21.30
2017-07-06T18:09:20.484Z,21.40
2017-07-06T18:11:48.626Z,21.40
2017-07-06T18:14:18.626Z,21.30
2017-07-06T18:16:46.782Z,21.20
2017-07-06T18:19:14.921Z,21.10
2017-07-06T18:21:43.059Z,21.00
2017-07-06T18:24:11.967Z,21.00
2017-07-06T18:26:40.092Z,21.10
2017-07-06T18:29:09.029Z,21.00
2017-07-06T18:31:37.812Z,21.00
2017-07-06T18:34:05.950Z,20.90
2017-07-06T18:36:34.909Z,20.80
2017-07-06T18:39:03.059Z,20.80
2017-07-06T18:41:31.304Z,20.80
2017-07-06T18:43:59.618Z,20.80
2017-07-06T18:46:27.807Z,20.80
2017-07-06T18:48:56.715Z,20.70
2017-07-06T18:51:25.875Z,20.70
2017-07-06T18:53:54.035Z,20.70
2017-07-06T18:56:23.339Z,20.60
2017-07-06T18:58:51.496Z,20.60
2017-07-06T19:01:19.673Z,20.50
2017-07-06T19:03:48.424Z,20.50
2017-07-06T19:06:17.399Z,20.50
2017-07-06T19:08:45.567Z,20.50
2017-07-06T19:11:13.857Z,20.40
2017-07-06T19:13:43.292Z,20.30
2017-07-06T19:16:11.415Z,20.20
2017-07-06T19:18:39.557Z,20.20
2017-07-06T19:21:08.668Z,20.10
2017-07-06T19:23:37.122Z,20.10
2017-07-06T19:26:06.072Z,20.20
2017-07-06T19:28:34.250Z,20.10
2017-07-06T19:31:03.685Z,20.10
2017-07-06T19:33:31.898Z,20.10
2017-07-06T19:36:00.142Z,20.10
2017-07-06T19:38:28.273Z,20.00
2017-07-06T19:40:56.480Z,20.00
2017-07-06T19:43:24.677Z,20.00
2017-07-06T19:45:52.824Z,19.90
2017-07-06T19:48:21.019Z,19.80
2017-07-06T19:50:49.252Z,19.80
2017-07-06T19:53:17.438Z,19.80
2017-07-06T19:55:45.557Z,19.80
2017-07-06T19:58:14.557Z,19.60
2017-07-06T20:00:42.740Z,19.60
2017-07-06T20:03:11.462Z,19.50
2017-07-06T20:05:40.424Z,19.50
2017-07-06T20:08:09.081Z,19.40
2017-07-06T20:10:37.346Z,19.30
2017-07-06T20:13:06.564Z,19.30
2017-07-06T20:15:34.705Z,19.20
2017-07-06T20:18:02.852Z,19.20
2017-07-06T20:20:31.194Z,19.20
2017-07-06T20:23:00.110Z,19.10
2017-07-06T20:25:28.247Z,19.00
2017-07-06T20:27:56.488Z,19.00
2017-07-06T20:30:24.625Z,19.00
2017-07-06T20:32:53.546Z,19.00
2017-07-06T20:35:21.998Z,19.00
2017-07-06T20:37:50.918Z,18.80
2017-07-06T20:40:19.210Z,18.90
2017-07-06T20:42:47.416Z,18.90
2017-07-06T20:45:15.567Z,18.90
2017-07-06T20:47:43.947Z,18.80
2017-07-06T20:50:13.339Z,18.80
2017-07-06T20:52:41.531Z,18.70
2017-07-06T20:55:10.723Z,18.60
2017-07-06T20:57:39.196Z,18.50
2017-07-06T21:00:07.440Z,18.50
2017-07-06T21:02:36.125Z,18.60
2017-07-06T21:05:04.465Z,18.40
2017-07-06T21:07:32.642Z,18.50
2017-07-06T21:10:00.871Z,18.40
2017-07-06T21:12:29.068Z,18.40
2017-07-06T21:14:58.070Z,18.40
2017-07-06T21:17:26.992Z,18.30
2017-07-06T21:19:56.385Z,18.30
2017-07-06T21:22:24.633Z,18.20
2017-07-06T21:24:53.779Z,18.10
2017-07-06T21:27:21.931Z,18.00
2017-07-06T21:29:50.129Z,18.10
2017-07-06T21:32:18.335Z,18.00
2017-07-06T21:34:46.507Z,18.00
2017-07-06T21:37:14.655Z,17.90
2017-07-06T21:39:43.487Z,17.90
2017-07-06T21:42:14.414Z,17.90
2017-07-06T21:44:43.292Z,17.80
2017-07-06T21:47:12.290Z,17.60
2017-07-06T21:49:40.461Z,17.50
2017-07-06T21:52:09.450Z,17.60
2017-07-06T21:54:37.731Z,17.60
2017-07-06T21:57:06.658Z,17.50
2017-07-06T21:59:34.799Z,17.50
2017-07-06T22:02:02.945Z,17.40
2017-07-06T22:04:31.515Z,17.30
2017-07-06T22:07:00.607Z,17.40
2017-07-06T22:09:28.805Z,17.30
2017-07-06T22:11:56.956Z,17.20
2017-07-06T22:14:25.289Z,17.20
2017-07-06T22:16:53.402Z,17.10
2017-07-06T22:19:21.722Z,17.10
2017-07-06T22:21:49.905Z,17.00
2017-07-06T22:24:18.039Z,17.00
2017-07-06T22:26:46.196Z,16.90
2017-07-06T22:29:14.329Z,16.90
2017-07-06T22:31:42.517Z,16.90
2017-07-06T22:34:10.656Z,16.90
2017-07-06T22:36:39.581Z,16.80
2017-07-06T22:39:07.735Z,16.70
2017-07-06T22:41:35.868Z,16.70
2017-07-06T22:44:04.091Z,16.60
2017-07-06T22:46:32.270Z,16.70
2017-07-06T22:49:00.472Z,16.60
2017-07-06T22:51:28.969Z,16.70
2017-07-06T22:53:57.949Z,16.70
2017-07-06T22:56:26.924Z,16.60
2017-07-06T22:58:55.082Z,16.70
2017-07-06T23:01:23.969Z,16.70
2017-07-06T23:03:52.302Z,16.70
2017-07-06T23:06:20.497Z,16.60
2017-07-06T23:08:48.623Z,16.60
2017-07-06T23:11:16.786Z,16.70
2017-07-06T23:13:45.783Z,16.70
2017-07-06T23:16:13.947Z,16.70
2017-07-06T23:18:42.099Z,16.60
2017-07-06T23:21:10.218Z,16.60
2017-07-06T23:23:38.382Z,16.60
2017-07-06T23:26:06.514Z,16.60
2017-07-06T23:28:35.187Z,16.60
2017-07-06T23:31:03.307Z,16.60
2017-07-06T23:33:31.449Z,16.60
2017-07-06T23:35:59.598Z,16.60
2017-07-06T23:38:27.709Z,16.60
2017-07-06T23:40:55.847Z,16.60
2017-07-06T23:43:23.983Z,16.50
2017-07-06T23:45:52.886Z,16.50
2017-07-06T23:48:22.484Z,16.50
2017-07-06T23:50:50.646Z,16.40
2017-07-06T23:53:18.878Z,16.50
2017-07-06T23:55:47.030Z,16.50
2017-07-06T23:58:15.689Z,16.50
